Pagrindinis puslapis
METAR-TAF:

METAR-TAF

Oro uostai :

Port Alsworth, Aliaska, Jungtinės Amerikos Valstijos

platuma: 60-12N, ilguma: 154-19W, Aukštis: 85 m

Dabartinis oras

Ataskaita buvo paskelbta 3 valandos ir 1 minutes, ne 01:50 UTC
Ramus vėjas
Temperatūra -13°C
Drėgmė 78%
Slėgis 1019 hPa
Matomumas: 64.4 km
Giedras dangus

METAR: PALJ 290150Z 000000KT 40SM SKC M13/M16 A3010 RMK LAST EST PASS OPEN NO SPECI

Laikas: 19:51 (04:51 UTC)


TAF: trūkstamas

Orai ataskaitas ir orų prognozės (METAR, TAF).

turimą stotys yra geltonos ir raudonos taškus žemėlapyje.

Perkelti pele per norėdami pamatyti stoties vardą.

Tada spustelėkite, norėdami matyti oro stebėjimo ir prognozės.

Norėdami pakeisti žemėlapį: spustelėkite ant žalios mygtukų su juodo kryžiaus žemyn,; žalią mygtuką su brūkšneliu, jei norite nutolinti; arba žalių rodyklių gretimoms žemėlapius.


METAR-TAF: